Flight Track Log - Related Links

Times and Time Zones

All times are in EDT time to prevent confusion due to time zone crossing. See the N411CC flight status page for this flight to view local times or setup timezone preferences in your user account.


Time Position Orientation Groundspeed Altitude Reporting Facility
EDT Latitude Longitude Course Direction KTS MPH feet Rate Location/Type
Fri 12:56:42 PM 43.2992 -124.3986 26° Northeast 150 173 4,800  Level Seattle Center
Fri 12:57:43 PM 43.3319 -124.3611 40° Northeast 152 175 6,600 1,721 Climbing Seattle Center
Fri 12:58:44 PM 43.3647 -124.3189 43° Northeast 156 180 8,300 1,756 Climbing Seattle Center
Fri 12:59:46 PM 43.4033 -124.2906 28° Northeast 158 182 10,200 1,805 Climbing Seattle Center
Fri 01:00:47 PM 43.4431 -124.2622 27° Northeast 160 184 12,000 1,967 Climbing Seattle Center
Fri 01:01:00 PM 43.4029 -124.1647 26° Northeast  Level FlightAware Approximate
Fri 01:01:48 PM 43.4886 -124.2267 30° Northeast 159 183 14,200  Level Seattle Center
Fri 01:02:49 PM 43.5283 -124.1953 30° Northeast 161 185 16,000 1,672 Climbing Seattle Center
Fri 01:03:50 PM 43.5683 -124.1631 30° Northeast 164 189 17,600 976 Climbing Seattle Center
Fri 01:04:52 PM 43.6114 -124.1283 30° Northeast 170 196 18,000 195 Climbing Seattle Center
Fri 01:05:53 PM 43.6678 -124.0814 31° Northeast 212 244 18,000  Level Seattle Center
Fri 01:06:54 PM 43.7256 -124.0336 31° Northeast 235 270 18,000  Level Seattle Center
Fri 01:07:55 PM 43.7889 -123.9856 29° Northeast 263 303 18,000  Level Seattle Center
Fri 01:08:56 PM 43.8506 -123.9369 30° Northeast 260 299 18,000  Level Seattle Center
Fri 01:09:58 PM 43.9111 -123.8867 31° Northeast 257 296 18,000  Level Seattle Center
Fri 01:10:59 PM 43.9731 -123.8381 29° Northeast 256 295 18,000  Level Seattle Center
Fri 01:12:00 PM 44.0464 -123.7761 31° Northeast 259 298 18,000  Level Seattle Center
Fri 01:13:01 PM 44.1078 -123.7278 29° Northeast 257 296 18,000  Level Seattle Center
Fri 01:14:02 PM 44.1689 -123.6775 31° Northeast 257 296 18,000  Level Seattle Center
Fri 01:15:04 PM 44.2286 -123.6272 31° Northeast 255 293 18,000 -49 Level Seattle Center
Fri 01:16:05 PM 44.2886 -123.5772 31° Northeast 254 292 17,900 -689 Descending Seattle Center
Fri 01:17:06 PM 44.3531 -123.5256 30° Northeast 268 308 16,600 -1,279 Descending Seattle Center
Fri 01:18:07 PM 44.4128 -123.4750 31° Northeast 257 296 15,300 -1,366 Descending Seattle Center
Fri 01:19:09 PM 44.4692 -123.4278 31° Northeast 242 278 13,800 -1,366 Descending Seattle Center
Fri 01:20:10 PM 44.5247 -123.3811 31° Northeast 236 272 12,500 -1,377 Descending Seattle Center
Fri 01:21:11 PM 44.5903 -123.3264 31° Northeast 230 265 11,000 -1,377 Descending Seattle Center
Fri 01:22:12 PM 44.6447 -123.2811 31° Northeast 229 264 9,700 -1,317 Descending Seattle Center
Fri 01:23:14 PM 44.6983 -123.2358 31° Northeast 228 262 8,300 -829 Descending Seattle Center
Fri 01:24:15 PM 44.7497 -123.1939 30° Northeast 218 251 8,000 -590 Descending Seattle Center
Fri 01:25:16 PM 44.7994 -123.1608 25° Northeast 204 235 7,100 -885 Descending Seattle Center
Fri 01:26:17 PM 44.8519 -123.1239 27° Northeast 210 242 6,200 -585 Descending Seattle Center
Fri 01:27:19 PM 44.8961 -123.0708 40° Northeast 211 243 5,900 -146 Descending Seattle Center
Fri 01:28:20 PM 44.9544 -123.0206 31° Northeast 207 238 5,900 -344 Level Seattle Center
Fri 01:29:21 PM 45.0047 -122.9778 31° Northeast 209 241 5,200 -885 Descending Seattle Center
Fri 01:30:22 PM 45.0519 -122.9372 31° Northeast 206 237 4,100 -1,171 Descending Seattle Center
Fri 01:31:24 PM 45.0986 -122.8981 31° Northeast 201 231 2,800 -829 Descending Seattle Center
Fri 01:32:25 PM 45.1481 -122.8544 32° Northeast 205 236 2,400 -393 Descending Seattle Center

Login

Don't have an account? Register now (free) for customized features, flight alerts, and more!